createdAt,value
2017-06-28T00:00:50.129Z,0
2017-06-28T00:02:05.365Z,0
2017-06-28T00:03:20.805Z,0
2017-06-28T00:04:36.505Z,0
2017-06-28T00:05:51.996Z,0
2017-06-28T00:07:07.626Z,0
2017-06-28T00:08:23.099Z,0
2017-06-28T00:09:38.773Z,0
2017-06-28T00:10:54.251Z,0
2017-06-28T00:12:08.393Z,0
2017-06-28T00:13:24.004Z,0
2017-06-28T00:14:39.699Z,0
2017-06-28T00:15:55.107Z,0
2017-06-28T00:17:07.813Z,0
2017-06-28T00:18:21.874Z,0
2017-06-28T00:19:37.612Z,0
2017-06-28T00:20:52.655Z,0
2017-06-28T00:22:08.138Z,0
2017-06-28T00:23:23.559Z,0
2017-06-28T00:24:39.269Z,0
2017-06-28T00:25:54.364Z,0
2017-06-28T00:27:09.792Z,0
2017-06-28T00:28:25.252Z,0
2017-06-28T00:29:40.908Z,0
2017-06-28T00:30:56.340Z,0
2017-06-28T00:32:11.725Z,0
2017-06-28T00:33:27.096Z,0
2017-06-28T00:34:41.490Z,0
2017-06-28T00:35:56.914Z,0
2017-06-28T00:37:11.053Z,0
2017-06-28T00:38:26.507Z,0
2017-06-28T00:39:42.165Z,0
2017-06-28T00:40:57.619Z,0
2017-06-28T00:42:13.245Z,0
2017-06-28T00:43:28.866Z,0
2017-06-28T00:44:44.546Z,0
2017-06-28T00:45:58.640Z,0
2017-06-28T00:47:12.803Z,0
2017-06-28T00:48:28.253Z,0
2017-06-28T00:49:43.992Z,0
2017-06-28T00:50:59.402Z,0
2017-06-28T00:52:14.849Z,0
2017-06-28T00:53:30.273Z,0
2017-06-28T00:54:45.970Z,0
2017-06-28T00:56:01.417Z,0
2017-06-28T00:57:15.512Z,0
2017-06-28T00:58:30.997Z,0
2017-06-28T00:59:46.687Z,0
2017-06-28T01:01:02.227Z,0
2017-06-28T01:02:16.494Z,0
2017-06-28T01:03:31.905Z,0
2017-06-28T01:04:47.555Z,0
2017-06-28T01:06:02.986Z,0
2017-06-28T01:07:15.701Z,0
2017-06-28T01:08:31.170Z,0
2017-06-28T01:09:46.839Z,0
2017-06-28T01:11:02.425Z,0
2017-06-28T01:12:18.072Z,0
2017-06-28T01:13:33.598Z,0
2017-06-28T01:14:49.277Z,0
2017-06-28T01:16:05.330Z,0
2017-06-28T01:17:20.418Z,0
2017-06-28T01:18:35.937Z,0
2017-06-28T01:19:51.630Z,0
2017-06-28T01:21:07.169Z,0
2017-06-28T01:22:22.572Z,0
2017-06-28T01:23:37.981Z,0
2017-06-28T01:24:53.672Z,0
2017-06-28T01:26:09.099Z,0
2017-06-28T01:27:24.606Z,0
2017-06-28T01:28:40.067Z,0
2017-06-28T01:29:55.774Z,0
2017-06-28T01:31:09.890Z,0
2017-06-28T01:32:24.017Z,0
2017-06-28T01:33:39.476Z,0
2017-06-28T01:35:26.015Z,0
2017-06-28T01:36:41.668Z,0
2017-06-28T01:37:57.323Z,0
2017-06-28T01:39:12.760Z,0
2017-06-28T01:40:27.192Z,0
2017-06-28T01:41:42.647Z,0
2017-06-28T01:42:58.066Z,0
2017-06-28T01:44:27.164Z,0
2017-06-28T01:45:42.812Z,0
2017-06-28T01:46:56.802Z,0
2017-06-28T01:48:12.241Z,0
2017-06-28T01:49:26.488Z,0
2017-06-28T01:50:40.852Z,0
2017-06-28T01:51:56.306Z,0
2017-06-28T01:53:11.684Z,0
2017-06-28T01:54:27.178Z,0
2017-06-28T01:55:56.429Z,0
2017-06-28T01:57:11.870Z,0
2017-06-28T01:58:26.953Z,0
2017-06-28T01:59:42.630Z,0
2017-06-28T02:00:58.348Z,0
2017-06-28T02:02:13.748Z,0
2017-06-28T02:03:29.240Z,0
2017-06-28T02:04:44.295Z,0
2017-06-28T02:05:59.983Z,0
2017-06-28T02:07:15.464Z,0
2017-06-28T02:08:29.565Z,0
2017-06-28T02:09:44.994Z,0
2017-06-28T02:11:00.664Z,0
2017-06-28T02:12:16.106Z,0
2017-06-28T02:13:31.514Z,0
2017-06-28T02:14:47.598Z,0
2017-06-28T02:16:03.288Z,0
2017-06-28T02:17:18.804Z,0
2017-06-28T02:18:34.252Z,0
2017-06-28T02:19:48.323Z,0
2017-06-28T02:21:04.030Z,0
2017-06-28T02:22:19.472Z,0
2017-06-28T02:23:34.954Z,0
2017-06-28T02:24:49.075Z,0
2017-06-28T02:26:04.736Z,0
2017-06-28T02:27:20.173Z,0
2017-06-28T02:28:35.599Z,0
2017-06-28T02:29:51.102Z,0
2017-06-28T02:31:06.755Z,0
2017-06-28T02:32:22.188Z,0
2017-06-28T02:33:37.615Z,0
2017-06-28T02:34:51.646Z,0
2017-06-28T02:36:07.351Z,0
2017-06-28T02:37:21.464Z,0
2017-06-28T02:38:36.924Z,0
2017-06-28T02:39:52.444Z,0
2017-06-28T02:41:08.131Z,0
2017-06-28T02:42:20.822Z,0
2017-06-28T02:43:36.258Z,0
2017-06-28T02:44:51.672Z,5
2017-06-28T02:46:07.345Z,5
2017-06-28T02:47:22.779Z,5
2017-06-28T02:48:38.251Z,5
2017-06-28T02:49:53.708Z,5
2017-06-28T02:51:09.405Z,5
2017-06-28T02:52:24.826Z,5
2017-06-28T02:53:40.255Z,5
2017-06-28T02:54:55.639Z,10
2017-06-28T02:56:11.327Z,10
2017-06-28T02:57:26.744Z,10
2017-06-28T02:58:42.144Z,10
2017-06-28T02:59:57.592Z,10
2017-06-28T03:01:10.503Z,10
2017-06-28T03:02:25.895Z,15
2017-06-28T03:03:41.345Z,15
2017-06-28T03:04:56.785Z,15
2017-06-28T03:06:12.170Z,15
2017-06-28T03:07:28.159Z,15
2017-06-28T03:08:43.201Z,20
2017-06-28T03:09:58.842Z,20
2017-06-28T03:11:14.518Z,20
2017-06-28T03:12:29.949Z,20
2017-06-28T03:13:45.439Z,20
2017-06-28T03:15:01.022Z,25
2017-06-28T03:16:16.712Z,25
2017-06-28T03:17:32.149Z,25
2017-06-28T03:18:47.610Z,25
2017-06-28T03:20:03.175Z,30
2017-06-28T03:21:18.472Z,30
2017-06-28T03:22:33.877Z,30
2017-06-28T03:23:49.411Z,35
2017-06-28T03:25:04.867Z,35
2017-06-28T03:26:20.568Z,40
2017-06-28T03:27:35.979Z,40
2017-06-28T03:28:51.649Z,40
2017-06-28T03:30:07.145Z,45
2017-06-28T03:31:22.789Z,45
2017-06-28T03:32:38.233Z,45
2017-06-28T03:33:53.674Z,50
2017-06-28T03:35:07.891Z,50
2017-06-28T03:36:23.636Z,50
2017-06-28T03:37:37.717Z,55
2017-06-28T03:38:53.351Z,55
2017-06-28T03:40:08.851Z,55
2017-06-28T03:41:24.553Z,60
2017-06-28T03:42:40.162Z,60
2017-06-28T03:43:55.652Z,65
2017-06-28T03:45:11.308Z,70
2017-06-28T03:46:26.982Z,70
2017-06-28T03:47:42.379Z,75
2017-06-28T03:48:57.907Z,80
2017-06-28T03:50:12.132Z,80
2017-06-28T03:51:27.785Z,85
2017-06-28T03:52:43.347Z,85
2017-06-28T03:53:58.963Z,90
2017-06-28T03:55:13.098Z,90
2017-06-28T03:56:28.989Z,90
2017-06-28T03:57:44.446Z,90
2017-06-28T03:58:59.859Z,90
2017-06-28T04:00:15.353Z,90
2017-06-28T04:01:31.267Z,90
2017-06-28T04:02:46.721Z,95
2017-06-28T04:04:02.132Z,95
2017-06-28T04:05:17.573Z,95
2017-06-28T04:06:33.268Z,100
2017-06-28T04:07:48.809Z,100
2017-06-28T04:09:04.256Z,100
2017-06-28T04:10:19.858Z,105
2017-06-28T04:11:35.580Z,100
2017-06-28T04:12:50.978Z,100
2017-06-28T04:14:06.061Z,105
2017-06-28T04:15:21.465Z,105
2017-06-28T04:16:37.193Z,105
2017-06-28T04:17:52.641Z,105
2017-06-28T04:19:08.286Z,105
2017-06-28T04:20:23.893Z,105
2017-06-28T04:21:38.444Z,105
2017-06-28T04:22:53.988Z,100
2017-06-28T04:24:09.543Z,95
2017-06-28T04:25:24.829Z,95
2017-06-28T04:26:40.453Z,100
2017-06-28T04:27:55.896Z,100
2017-06-28T04:29:11.360Z,105
2017-06-28T04:30:25.521Z,105
2017-06-28T04:31:41.173Z,110
2017-06-28T04:32:56.688Z,115
2017-06-28T04:34:12.281Z,120
2017-06-28T04:35:26.397Z,130
2017-06-28T04:36:42.087Z,140
2017-06-28T04:37:57.540Z,150
2017-06-28T04:39:11.656Z,155
2017-06-28T04:40:27.115Z,160
2017-06-28T04:41:42.823Z,165
2017-06-28T04:42:58.250Z,160
2017-06-28T04:44:13.679Z,165
2017-06-28T04:45:29.123Z,170
2017-06-28T04:46:43.349Z,175
2017-06-28T04:47:58.864Z,175
2017-06-28T04:49:14.291Z,175
2017-06-28T04:50:29.902Z,175
2017-06-28T04:51:45.644Z,170
2017-06-28T04:53:01.197Z,165
2017-06-28T04:54:16.631Z,165
2017-06-28T04:55:32.065Z,165
2017-06-28T04:56:46.425Z,165
2017-06-28T04:58:01.884Z,170
2017-06-28T04:59:17.372Z,170
2017-06-28T05:00:32.848Z,170
2017-06-28T05:01:48.647Z,170
2017-06-28T05:03:04.089Z,170
2017-06-28T05:04:19.525Z,165
2017-06-28T05:05:35.113Z,155
2017-06-28T05:06:50.893Z,160
2017-06-28T05:08:06.366Z,155
2017-06-28T05:09:21.807Z,145
2017-06-28T05:10:37.261Z,160
2017-06-28T05:11:52.962Z,150
2017-06-28T05:13:08.430Z,165
2017-06-28T05:14:22.741Z,165
2017-06-28T05:15:38.177Z,155
2017-06-28T05:16:52.528Z,160
2017-06-28T05:18:08.195Z,170
2017-06-28T05:19:23.637Z,180
2017-06-28T05:20:39.109Z,195
2017-06-28T05:21:54.772Z,195
2017-06-28T05:23:08.964Z,200
2017-06-28T05:24:24.397Z,200
2017-06-28T05:25:39.859Z,200
2017-06-28T05:26:55.711Z,200
2017-06-28T05:28:11.164Z,200
2017-06-28T05:29:26.599Z,200
2017-06-28T05:30:42.221Z,205
2017-06-28T05:31:58.030Z,205
2017-06-28T05:33:13.642Z,210
2017-06-28T05:34:29.221Z,210
2017-06-28T05:35:43.230Z,210
2017-06-28T05:36:58.937Z,205
2017-06-28T05:38:14.410Z,200
2017-06-28T05:39:29.797Z,205
2017-06-28T05:40:45.245Z,210
2017-06-28T05:42:00.931Z,215
2017-06-28T05:43:16.436Z,225
2017-06-28T05:44:31.486Z,220
2017-06-28T05:45:46.910Z,225
2017-06-28T05:47:02.868Z,225
2017-06-28T05:48:17.948Z,225
2017-06-28T05:49:33.390Z,240
2017-06-28T05:50:48.822Z,235
2017-06-28T05:52:03.241Z,240
2017-06-28T05:53:18.738Z,245
2017-06-28T05:54:34.268Z,245
2017-06-28T05:55:50.001Z,250
2017-06-28T05:57:05.727Z,245
2017-06-28T05:58:34.566Z,245
2017-06-28T05:59:48.731Z,250
2017-06-28T06:01:04.110Z,250
2017-06-28T06:02:20.071Z,250
2017-06-28T06:03:35.532Z,255
2017-06-28T06:04:51.225Z,255
2017-06-28T06:06:05.259Z,260
2017-06-28T06:07:20.917Z,260
2017-06-28T06:08:35.984Z,265
2017-06-28T06:09:51.550Z,260
2017-06-28T06:11:07.011Z,260
2017-06-28T06:12:22.699Z,260
2017-06-28T06:13:38.251Z,270
2017-06-28T06:14:52.318Z,275
2017-06-28T06:16:07.717Z,275
2017-06-28T06:17:23.397Z,280
2017-06-28T06:18:38.858Z,280
2017-06-28T06:19:54.276Z,280
2017-06-28T06:21:09.784Z,285
2017-06-28T06:22:25.483Z,285
2017-06-28T06:23:40.921Z,285
2017-06-28T06:24:55.078Z,290
2017-06-28T06:26:10.561Z,290
2017-06-28T06:27:25.900Z,290
2017-06-28T06:28:41.304Z,290
2017-06-28T06:29:56.784Z,295
2017-06-28T06:31:12.256Z,295
2017-06-28T06:32:27.957Z,295
2017-06-28T06:33:43.400Z,300
2017-06-28T06:34:58.817Z,290
2017-06-28T06:36:14.459Z,290
2017-06-28T06:37:30.191Z,290
2017-06-28T06:38:45.641Z,285
2017-06-28T06:40:01.087Z,290
2017-06-28T06:41:16.525Z,290
2017-06-28T06:42:32.336Z,290
2017-06-28T06:43:47.756Z,290
2017-06-28T06:45:03.159Z,285
2017-06-28T06:46:18.801Z,285
2017-06-28T06:47:34.811Z,280
2017-06-28T06:48:50.286Z,280
2017-06-28T06:50:05.793Z,285
2017-06-28T06:51:20.995Z,280
2017-06-28T06:52:36.689Z,280
2017-06-28T06:53:52.093Z,280
2017-06-28T06:55:07.508Z,275
2017-06-28T06:56:21.494Z,270
2017-06-28T06:57:37.193Z,275
2017-06-28T06:58:52.621Z,280
2017-06-28T07:00:08.118Z,280
2017-06-28T07:01:23.758Z,285
2017-06-28T07:02:39.415Z,290
2017-06-28T07:03:53.432Z,290
2017-06-28T07:05:08.999Z,295
2017-06-28T07:06:22.787Z,300
2017-06-28T07:07:38.192Z,300
2017-06-28T07:08:53.635Z,305
2017-06-28T07:10:07.779Z,305
2017-06-28T07:11:22.921Z,310
2017-06-28T07:12:38.265Z,310
2017-06-28T07:13:53.679Z,310
2017-06-28T07:15:09.164Z,310
2017-06-28T07:16:24.545Z,315
2017-06-28T07:17:40.263Z,315
2017-06-28T07:18:55.730Z,320
2017-06-28T07:20:09.871Z,320
2017-06-28T07:21:24.946Z,320
2017-06-28T07:22:40.715Z,325
2017-06-28T07:23:56.101Z,330
2017-06-28T07:25:11.566Z,335
2017-06-28T07:26:27.240Z,345
2017-06-28T07:27:42.975Z,355
2017-06-28T07:28:58.482Z,360
2017-06-28T07:30:12.628Z,365
2017-06-28T07:31:28.050Z,365
2017-06-28T07:32:42.402Z,365
2017-06-28T07:33:56.239Z,375
2017-06-28T07:35:11.822Z,370
2017-06-28T07:36:27.274Z,370
2017-06-28T07:37:43.020Z,360
2017-06-28T07:38:58.685Z,365
2017-06-28T07:40:14.117Z,360
2017-06-28T07:41:29.572Z,355
2017-06-28T07:42:45.290Z,355
2017-06-28T07:44:00.750Z,365
2017-06-28T07:45:16.189Z,365
2017-06-28T07:46:30.337Z,370
2017-06-28T07:47:46.090Z,380
2017-06-28T07:49:00.296Z,395
2017-06-28T07:50:15.780Z,405
2017-06-28T07:51:29.946Z,425
2017-06-28T07:52:45.368Z,450
2017-06-28T07:54:01.044Z,415
2017-06-28T07:55:16.483Z,380
2017-06-28T07:56:31.994Z,435
2017-06-28T07:57:47.435Z,450
2017-06-28T07:59:03.198Z,445
2017-06-28T08:00:18.705Z,445
2017-06-28T08:01:34.327Z,465
2017-06-28T08:02:49.796Z,475
2017-06-28T08:04:05.544Z,475
2017-06-28T08:05:20.993Z,480
2017-06-28T08:06:36.438Z,480
2017-06-28T08:07:52.045Z,470
2017-06-28T08:09:07.760Z,455
2017-06-28T08:10:23.201Z,455
2017-06-28T08:11:38.633Z,460
2017-06-28T08:12:54.085Z,450
2017-06-28T08:14:09.717Z,455
2017-06-28T08:15:23.922Z,475
2017-06-28T08:16:39.342Z,480
2017-06-28T08:17:54.827Z,485
2017-06-28T08:19:10.488Z,485
2017-06-28T08:20:25.954Z,485
2017-06-28T08:21:41.424Z,490
2017-06-28T08:22:56.887Z,475
2017-06-28T08:24:12.568Z,490
2017-06-28T08:25:27.942Z,500
2017-06-28T08:26:43.383Z,515
2017-06-28T08:27:58.802Z,505
2017-06-28T08:29:14.437Z,490
2017-06-28T08:30:28.550Z,495
2017-06-28T08:31:44.045Z,500
2017-06-28T08:32:59.474Z,515
2017-06-28T08:34:15.221Z,515
2017-06-28T08:35:30.745Z,530
2017-06-28T08:36:46.184Z,525
2017-06-28T08:38:01.675Z,530
2017-06-28T08:39:17.405Z,520
2017-06-28T08:40:32.884Z,520
2017-06-28T08:41:48.357Z,525
2017-06-28T08:43:03.418Z,530
2017-06-28T08:44:19.132Z,550
2017-06-28T08:45:34.585Z,895
2017-06-28T08:46:50.139Z,1810
2017-06-28T08:48:05.591Z,2505
2017-06-28T08:49:21.315Z,2450
2017-06-28T08:50:36.893Z,2405
2017-06-28T08:51:52.425Z,2405
2017-06-28T08:53:08.044Z,2055
2017-06-28T08:54:23.773Z,1125
2017-06-28T08:55:39.235Z,780
2017-06-28T08:56:54.804Z,900
2017-06-28T08:58:10.264Z,955
2017-06-28T08:59:24.645Z,1035
2017-06-28T09:00:40.152Z,730
2017-06-28T09:01:55.656Z,850
2017-06-28T09:03:11.155Z,760
2017-06-28T09:04:26.833Z,1185
2017-06-28T09:05:42.426Z,700
2017-06-28T09:06:57.816Z,720
2017-06-28T09:08:13.269Z,3825
2017-06-28T09:09:29.061Z,1760
2017-06-28T09:10:44.518Z,3880
2017-06-28T09:11:59.966Z,2880
2017-06-28T09:13:14.156Z,3285
2017-06-28T09:14:30.207Z,2900
2017-06-28T09:15:45.741Z,2675
2017-06-28T09:17:01.226Z,2520
2017-06-28T09:18:16.866Z,2520
2017-06-28T09:19:46.166Z,2195
2017-06-28T09:21:01.623Z,2680
2017-06-28T09:22:17.120Z,2805
2017-06-28T09:23:32.496Z,2975
2017-06-28T09:24:48.517Z,3135
2017-06-28T09:26:04.014Z,3340
2017-06-28T09:27:19.485Z,3525
2017-06-28T09:28:34.953Z,3525
2017-06-28T09:29:50.802Z,3680
2017-06-28T09:31:06.280Z,3550
2017-06-28T09:32:35.331Z,3475
2017-06-28T09:33:50.811Z,3580
2017-06-28T09:35:06.534Z,3125
2017-06-28T09:36:21.958Z,3705
2017-06-28T09:37:37.389Z,1340
2017-06-28T09:38:52.814Z,1120
2017-06-28T09:40:08.522Z,2110
2017-06-28T09:41:37.581Z,4070
2017-06-28T09:42:52.709Z,3860
2017-06-28T09:44:08.180Z,4045
2017-06-28T09:45:23.873Z,2705
2017-06-28T09:46:39.386Z,3040
2017-06-28T09:47:54.869Z,3225
2017-06-28T09:49:10.373Z,2375
2017-06-28T09:50:26.204Z,2885
2017-06-28T09:51:41.669Z,3215
2017-06-28T09:52:57.161Z,2765
2017-06-28T09:54:12.664Z,1345
2017-06-28T09:55:28.519Z,1970
2017-06-28T09:56:44.009Z,1760
2017-06-28T09:57:59.480Z,1725
2017-06-28T09:59:15.182Z,1900
2017-06-28T10:00:30.832Z,2270
2017-06-28T10:01:46.219Z,2370
2017-06-28T10:03:01.684Z,2435
2017-06-28T10:04:17.170Z,1785
2017-06-28T10:05:32.911Z,1430
2017-06-28T10:06:48.394Z,940
2017-06-28T10:08:03.835Z,850
2017-06-28T10:09:18.961Z,820
2017-06-28T10:10:34.653Z,825
2017-06-28T10:11:50.075Z,855
2017-06-28T10:13:05.563Z,900
2017-06-28T10:14:21.011Z,970
2017-06-28T10:15:35.411Z,1050
2017-06-28T10:16:49.426Z,1150
2017-06-28T10:18:04.454Z,1650
2017-06-28T10:19:19.965Z,3200
2017-06-28T10:20:35.652Z,2095
2017-06-28T10:21:51.138Z,3260
2017-06-28T10:23:06.623Z,3335
2017-06-28T10:24:22.119Z,1685
2017-06-28T10:25:37.961Z,1375
2017-06-28T10:26:53.475Z,1370
2017-06-28T10:28:08.961Z,1495
2017-06-28T10:29:24.367Z,1315
2017-06-28T10:30:38.798Z,1450
2017-06-28T10:31:54.225Z,1450
2017-06-28T10:33:09.737Z,1215
2017-06-28T10:34:25.202Z,1155
2017-06-28T10:35:40.921Z,1225
2017-06-28T10:36:56.394Z,1205
2017-06-28T10:38:11.885Z,1250
2017-06-28T10:39:27.406Z,1240
2017-06-28T10:40:43.550Z,1420
2017-06-28T10:41:59.036Z,1765
2017-06-28T10:43:14.198Z,2100
2017-06-28T10:44:28.370Z,2655
2017-06-28T10:45:44.054Z,2020
2017-06-28T10:46:59.479Z,2235
2017-06-28T10:48:14.976Z,1975
2017-06-28T10:49:30.435Z,1280
2017-06-28T10:50:46.233Z,1300
2017-06-28T10:52:01.935Z,1200
2017-06-28T10:53:17.597Z,1320
2017-06-28T10:54:33.091Z,1390
2017-06-28T10:55:48.808Z,2260
2017-06-28T10:57:04.297Z,1285
2017-06-28T10:58:19.778Z,1845
2017-06-28T10:59:35.218Z,2580
2017-06-28T11:00:51.058Z,960
2017-06-28T11:02:06.505Z,815
2017-06-28T11:03:22.070Z,1075
2017-06-28T11:04:37.793Z,685
2017-06-28T11:05:52.197Z,515
2017-06-28T11:07:07.631Z,410
2017-06-28T11:08:23.024Z,465
2017-06-28T11:09:38.594Z,450
2017-06-28T11:10:54.278Z,405
2017-06-28T11:12:09.741Z,365
2017-06-28T11:13:25.257Z,390
2017-06-28T11:14:40.915Z,350
2017-06-28T11:15:56.604Z,325
2017-06-28T11:17:09.354Z,340
2017-06-28T11:18:24.909Z,315
2017-06-28T11:19:40.400Z,275
2017-06-28T11:20:56.093Z,250
2017-06-28T11:22:11.592Z,215
2017-06-28T11:23:27.048Z,190
2017-06-28T11:24:42.653Z,165
2017-06-28T11:25:57.061Z,135
2017-06-28T11:27:12.500Z,120
2017-06-28T11:28:27.952Z,110
2017-06-28T11:29:43.574Z,90
2017-06-28T11:30:57.972Z,75
2017-06-28T11:32:13.435Z,65
2017-06-28T11:33:28.912Z,60
2017-06-28T11:34:44.526Z,70
2017-06-28T11:36:00.326Z,90
2017-06-28T11:37:14.413Z,140
2017-06-28T11:38:30.176Z,190
2017-06-28T11:39:45.599Z,265
2017-06-28T11:41:01.546Z,275
2017-06-28T11:42:15.597Z,245
2017-06-28T11:43:31.156Z,220
2017-06-28T11:44:46.801Z,185
2017-06-28T11:46:02.456Z,160
2017-06-28T11:47:16.605Z,145
2017-06-28T11:48:32.084Z,175
2017-06-28T11:49:47.790Z,200
2017-06-28T11:51:03.574Z,175
2017-06-28T11:52:18.954Z,155
2017-06-28T11:53:34.386Z,145
2017-06-28T11:54:49.843Z,115
2017-06-28T11:56:04.291Z,105
2017-06-28T11:57:19.714Z,95
2017-06-28T11:58:35.163Z,100
2017-06-28T11:59:50.601Z,110
2017-06-28T12:01:06.368Z,115
2017-06-28T12:02:21.827Z,120
2017-06-28T12:03:37.282Z,160
2017-06-28T12:04:51.288Z,190
2017-06-28T12:06:07.046Z,205
2017-06-28T12:07:22.488Z,225
2017-06-28T12:08:36.527Z,215
2017-06-28T12:09:51.959Z,230
2017-06-28T12:11:07.724Z,265
2017-06-28T12:12:23.217Z,325
2017-06-28T12:13:38.677Z,385
2017-06-28T12:14:54.120Z,450
2017-06-28T12:16:23.246Z,440
2017-06-28T12:17:38.928Z,430
2017-06-28T12:18:54.406Z,430
2017-06-28T12:20:09.828Z,355
2017-06-28T12:21:25.556Z,315
2017-06-28T12:22:39.703Z,290
2017-06-28T12:23:55.178Z,255
2017-06-28T12:25:10.614Z,240
2017-06-28T12:26:26.050Z,240
2017-06-28T12:27:41.508Z,200
2017-06-28T12:28:57.322Z,150
2017-06-28T12:30:12.989Z,135
2017-06-28T12:31:28.803Z,150
2017-06-28T12:32:43.882Z,175
2017-06-28T12:33:59.376Z,225
2017-06-28T12:35:14.803Z,290
2017-06-28T12:36:30.705Z,320
2017-06-28T12:37:46.183Z,305
2017-06-28T12:39:01.877Z,255
2017-06-28T12:40:17.321Z,220
2017-06-28T12:41:33.044Z,205
2017-06-28T12:42:48.536Z,205
2017-06-28T12:44:04.188Z,205
2017-06-28T12:45:19.749Z,220
2017-06-28T12:46:35.357Z,235
2017-06-28T12:47:49.759Z,265
2017-06-28T12:49:05.254Z,300
2017-06-28T12:50:20.814Z,350
2017-06-28T12:51:36.481Z,400
2017-06-28T12:52:51.945Z,455
2017-06-28T12:54:20.815Z,505
2017-06-28T12:55:36.228Z,525
2017-06-28T12:56:51.976Z,535
2017-06-28T12:58:07.429Z,540
2017-06-28T12:59:22.873Z,545
2017-06-28T13:00:38.443Z,550
2017-06-28T13:01:54.120Z,555
2017-06-28T13:03:09.561Z,550
2017-06-28T13:04:25.046Z,565
2017-06-28T13:05:40.516Z,565
2017-06-28T13:06:56.259Z,575
2017-06-28T13:08:11.668Z,580
2017-06-28T13:09:27.102Z,595
2017-06-28T13:10:41.245Z,615
2017-06-28T13:11:57.048Z,625
2017-06-28T13:13:12.524Z,640
2017-06-28T13:14:26.716Z,660
2017-06-28T13:15:41.018Z,695
2017-06-28T13:16:56.768Z,715
2017-06-28T13:18:12.204Z,765
2017-06-28T13:19:27.713Z,805
2017-06-28T13:20:43.224Z,860
2017-06-28T13:21:59.127Z,925
2017-06-28T13:23:14.610Z,995
2017-06-28T13:24:28.762Z,1095
2017-06-28T13:25:44.341Z,1170
2017-06-28T13:27:00.082Z,1225
2017-06-28T13:28:15.552Z,1200
2017-06-28T13:29:31.042Z,1110
2017-06-28T13:30:46.501Z,1210
2017-06-28T13:32:02.270Z,1330
2017-06-28T13:33:17.716Z,1530
2017-06-28T13:34:33.175Z,1375
2017-06-28T13:35:48.821Z,1250
2017-06-28T13:37:04.577Z,1285
2017-06-28T13:38:19.998Z,1125
2017-06-28T13:39:35.458Z,930
2017-06-28T13:40:50.884Z,920
2017-06-28T13:42:05.290Z,995
2017-06-28T13:43:20.725Z,1175
2017-06-28T13:44:36.203Z,1125
2017-06-28T13:45:51.730Z,1165
2017-06-28T13:47:07.441Z,1190
2017-06-28T13:48:23.028Z,1580
2017-06-28T13:49:37.123Z,2365
2017-06-28T13:50:52.603Z,2670
2017-06-28T13:52:08.330Z,2805
2017-06-28T13:53:23.795Z,3210
2017-06-28T13:54:39.199Z,3070
2017-06-28T13:55:54.661Z,3065
2017-06-28T13:57:10.366Z,3480
2017-06-28T13:58:25.854Z,3355
2017-06-28T13:59:41.312Z,3275
2017-06-28T14:00:57.043Z,3050
2017-06-28T14:02:12.772Z,2910
2017-06-28T14:03:28.225Z,2930
2017-06-28T14:04:43.670Z,2945
2017-06-28T14:05:59.178Z,2980
2017-06-28T14:07:14.925Z,3060
2017-06-28T14:08:30.396Z,3370
2017-06-28T14:09:45.957Z,1450
2017-06-28T14:11:01.429Z,3000
2017-06-28T14:12:17.150Z,1070
2017-06-28T14:13:32.610Z,2340
2017-06-28T14:14:46.615Z,1075
2017-06-28T14:16:00.634Z,3045
2017-06-28T14:17:16.413Z,3185
2017-06-28T14:18:31.861Z,3090
2017-06-28T14:19:47.353Z,2855
2017-06-28T14:21:02.868Z,1440
2017-06-28T14:22:18.562Z,1970
2017-06-28T14:23:34.224Z,1475
2017-06-28T14:24:49.718Z,1400
2017-06-28T14:26:05.247Z,2910
2017-06-28T14:27:21.503Z,3110
2017-06-28T14:28:36.948Z,2480
2017-06-28T14:29:52.407Z,1340
2017-06-28T14:31:07.920Z,2080
2017-06-28T14:32:22.366Z,2335
2017-06-28T14:33:37.875Z,2765
2017-06-28T14:34:53.354Z,2940
2017-06-28T14:36:08.961Z,3085
2017-06-28T14:37:24.688Z,3110
2017-06-28T14:38:53.893Z,3105
2017-06-28T14:40:09.352Z,3165
2017-06-28T14:41:23.515Z,2460
2017-06-28T14:42:39.226Z,615
2017-06-28T14:43:54.696Z,640
2017-06-28T14:45:10.194Z,585
2017-06-28T14:46:25.641Z,605
2017-06-28T14:47:39.913Z,775
2017-06-28T14:48:55.418Z,3530
2017-06-28T14:50:10.900Z,760
2017-06-28T14:51:26.370Z,675
2017-06-28T14:52:42.236Z,620
2017-06-28T14:53:57.782Z,540
2017-06-28T14:55:13.177Z,510
2017-06-28T14:56:27.329Z,545
2017-06-28T14:57:43.130Z,630
2017-06-28T14:58:57.349Z,640
2017-06-28T15:00:12.824Z,555
2017-06-28T15:01:28.310Z,535
2017-06-28T15:02:44.239Z,555
2017-06-28T15:03:59.675Z,575
2017-06-28T15:05:14.073Z,555
2017-06-28T15:06:29.527Z,495
2017-06-28T15:07:45.265Z,440
2017-06-28T15:09:00.754Z,450
2017-06-28T15:10:16.243Z,490
2017-06-28T15:11:31.681Z,565
2017-06-28T15:12:47.325Z,730
2017-06-28T15:14:02.936Z,635
2017-06-28T15:15:18.371Z,600
2017-06-28T15:16:32.416Z,565
2017-06-28T15:17:48.265Z,530
2017-06-28T15:19:03.731Z,510
2017-06-28T15:20:19.350Z,480
2017-06-28T15:21:34.840Z,385
2017-06-28T15:22:50.547Z,465
2017-06-28T15:24:06.006Z,475
2017-06-28T15:25:20.186Z,485
2017-06-28T15:26:35.602Z,490
2017-06-28T15:27:51.301Z,500
2017-06-28T15:29:06.794Z,535
2017-06-28T15:30:22.231Z,545
2017-06-28T15:31:37.701Z,470
2017-06-28T15:32:53.389Z,505
2017-06-28T15:34:08.858Z,535
2017-06-28T15:35:24.518Z,540
2017-06-28T15:36:40.053Z,590
2017-06-28T15:37:55.749Z,570
2017-06-28T15:39:09.989Z,545
2017-06-28T15:40:25.426Z,555
2017-06-28T15:41:40.905Z,500
2017-06-28T15:42:56.764Z,520
2017-06-28T15:44:12.167Z,430
2017-06-28T15:45:27.684Z,390
2017-06-28T15:46:43.168Z,395
2017-06-28T15:47:58.922Z,400
2017-06-28T15:49:14.017Z,430
2017-06-28T15:51:00.390Z,490
2017-06-28T15:52:16.044Z,510
2017-06-28T15:53:31.704Z,520
2017-06-28T15:54:47.117Z,545
2017-06-28T15:56:02.768Z,565
2017-06-28T15:57:18.265Z,615
2017-06-28T15:58:47.394Z,585
2017-06-28T16:00:03.059Z,535
2017-06-28T16:01:18.550Z,470
2017-06-28T16:02:34.094Z,365
2017-06-28T16:03:49.828Z,325
2017-06-28T16:05:04.010Z,315
2017-06-28T16:06:19.664Z,310
2017-06-28T16:07:33.853Z,315
2017-06-28T16:08:49.708Z,335
2017-06-28T16:10:05.152Z,340
2017-06-28T16:11:20.820Z,345
2017-06-28T16:12:36.291Z,345
2017-06-28T16:13:51.997Z,290
2017-06-28T16:15:07.478Z,300
2017-06-28T16:16:22.915Z,330
2017-06-28T16:17:36.969Z,340
2017-06-28T16:18:52.326Z,335
2017-06-28T16:20:07.825Z,320
2017-06-28T16:21:23.272Z,320
2017-06-28T16:22:38.713Z,345
2017-06-28T16:23:54.459Z,385
2017-06-28T16:25:09.949Z,420
2017-06-28T16:26:25.444Z,425
2017-06-28T16:27:41.074Z,415
2017-06-28T16:30:25.889Z,395
2017-06-28T16:31:41.358Z,385
2017-06-28T16:32:56.901Z,370
2017-06-28T16:34:12.588Z,350
2017-06-28T16:35:28.122Z,335
2017-06-28T16:36:42.271Z,330
2017-06-28T16:37:57.987Z,330
2017-06-28T16:39:13.719Z,335
2017-06-28T16:40:29.277Z,325
2017-06-28T16:41:44.728Z,305
2017-06-28T16:42:58.966Z,280
2017-06-28T16:44:14.857Z,255
2017-06-28T16:45:30.353Z,240
2017-06-28T16:46:45.474Z,225
2017-06-28T16:48:00.972Z,225
2017-06-28T16:49:16.699Z,225
2017-06-28T16:50:32.354Z,235
2017-06-28T16:51:47.950Z,235
2017-06-28T16:53:03.419Z,235
2017-06-28T16:54:19.178Z,230
2017-06-28T16:55:34.670Z,205
2017-06-28T16:56:50.297Z,190
2017-06-28T16:58:05.992Z,185
2017-06-28T16:59:21.696Z,190
2017-06-28T17:00:35.820Z,195
2017-06-28T17:01:51.244Z,185
2017-06-28T17:03:06.746Z,170
2017-06-28T17:04:22.457Z,165
2017-06-28T17:05:37.909Z,160
2017-06-28T17:06:53.624Z,160
2017-06-28T17:08:09.112Z,170
2017-06-28T17:09:24.810Z,170
2017-06-28T17:10:40.248Z,165
2017-06-28T17:11:56.023Z,165
2017-06-28T17:13:11.425Z,160
2017-06-28T17:14:25.879Z,160
2017-06-28T17:15:41.423Z,165
2017-06-28T17:16:56.908Z,175
2017-06-28T17:18:12.391Z,195
2017-06-28T17:19:28.068Z,210
2017-06-28T17:20:43.518Z,220
2017-06-28T17:21:58.990Z,210
2017-06-28T17:23:14.562Z,210
2017-06-28T17:24:30.276Z,205
2017-06-28T17:25:45.868Z,200
2017-06-28T17:27:01.053Z,195
2017-06-28T17:28:15.457Z,180
2017-06-28T17:29:31.195Z,165
2017-06-28T17:30:46.697Z,165